Time;durP1;ratioP1;P1;durP2;ratioP2;P2;SDS_P1;SDS_P2;PMS_P1;PMS_P2;Temp;Humidity;BMP_temperature;BMP_pressure;BME280_temperature;BME280_humidity;BME280_pressure;Samples;Min_cycle;Max_cycle;Signal;HPM_P1;HPM_P2
2022/08/26 00:01:28;;;;;;;42.33;30.63;;;20.60;99.90;;;;;;5094342;28;20479;-63
2022/08/26 00:03:55;;;;;;;41.63;29.38;;;20.60;99.90;;;;;;5112252;28;20085;-64
2022/08/26 00:06:21;;;;;;;33.17;26.52;;;20.60;99.90;;;;;;5094331;28;20438;-64
2022/08/26 00:08:47;;;;;;;31.85;26.15;;;20.60;99.90;;;;;;5112197;28;20531;-64
2022/08/26 00:11:13;;;;;;;33.42;24.65;;;20.60;99.90;;;;;;5112400;28;20127;-64
2022/08/26 00:13:39;;;;;;;29.30;23.48;;;20.60;99.90;;;;;;5088075;28;20135;-64
2022/08/26 00:16:07;;;;;;;33.67;23.00;;;20.50;99.90;;;;;;5090932;28;20502;-64
2022/08/26 00:18:33;;;;;;;29.63;22.25;;;20.60;99.90;;;;;;5090540;28;20036;-64
2022/08/26 00:20:59;;;;;;;28.13;22.15;;;20.60;99.90;;;;;;5091778;28;20047;-64
2022/08/26 00:23:25;;;;;;;27.85;22.45;;;20.50;99.90;;;;;;5094916;28;20055;-64
2022/08/26 00:25:52;;;;;;;31.67;21.40;;;20.60;99.90;;;;;;5094688;28;20036;-64
2022/08/26 00:28:18;;;;;;;32.45;20.55;;;20.60;99.90;;;;;;5095964;28;20119;-64
2022/08/26 00:30:46;;;;;;;30.02;21.23;;;20.60;99.90;;;;;;5077619;28;20606;-64
2022/08/26 00:33:14;;;;;;;26.13;20.08;;;20.60;99.90;;;;;;5094701;28;20514;-64
2022/08/26 00:35:40;;;;;;;26.40;20.02;;;20.60;99.90;;;;;;5094481;28;20040;-64
2022/08/26 00:38:07;;;;;;;24.33;19.45;;;20.50;99.90;;;;;;5094682;28;20045;-64
2022/08/26 00:40:35;;;;;;;23.65;19.35;;;20.60;99.90;;;;;;5094377;28;20054;-64
2022/08/26 00:43:02;;;;;;;27.13;19.45;;;20.50;99.90;;;;;;5091980;28;20801;-64
2022/08/26 00:45:38;;;;;;;23.88;18.13;;;20.60;99.90;;;;;;5095592;28;20111;-64
2022/08/26 00:48:05;;;;;;;24.02;17.70;;;20.60;99.90;;;;;;5095600;28;20043;-64
2022/08/26 00:50:37;;;;;;;25.67;18.02;;;20.50;99.90;;;;;;5095568;28;20072;-64
2022/08/26 00:53:20;;;;;;;22.88;18.30;;;20.50;99.90;;;;;;5094290;28;20036;-64
2022/08/26 00:55:52;;;;;;;20.77;16.77;;;20.50;99.90;;;;;;5094121;28;20043;-64
2022/08/26 00:58:19;;;;;;;21.23;15.55;;;20.50;99.90;;;;;;5093998;28;20118;-64
2022/08/26 01:00:45;;;;;;;20.70;16.58;;;20.40;99.90;;;;;;5095506;28;20044;-64
2022/08/26 01:03:12;;;;;;;16.00;14.30;;;20.40;99.90;;;;;;5094030;28;20040;-64
2022/08/26 01:05:40;;;;;;;19.45;14.07;;;20.30;99.90;;;;;;5095304;28;20055;-64
2022/08/26 01:08:06;;;;;;;20.88;14.35;;;20.40;99.90;;;;;;5093854;28;20507;-64
2022/08/26 01:10:32;;;;;;;17.00;12.88;;;20.30;99.90;;;;;;5093615;28;20036;-64
2022/08/26 01:13:04;;;;;;;16.63;12.18;;;20.30;99.90;;;;;;5091195;28;20060;-64
2022/08/26 01:15:40;;;;;;;16.95;11.77;;;20.30;99.90;;;;;;5093967;28;20040;-64
2022/08/26 01:18:07;;;;;;;22.98;13.15;;;20.30;99.90;;;;;;5093656;28;20503;-64
2022/08/26 01:20:44;;;;;;;22.02;13.75;;;20.30;99.90;;;;;;5094872;28;20040;-64
2022/08/26 01:23:11;;;;;;;19.52;12.20;;;20.30;99.90;;;;;;5093811;28;20086;-64
2022/08/26 01:25:40;;;;;;;18.17;11.70;;;20.30;99.90;;;;;;5093815;28;20039;-64
2022/08/26 01:28:12;;;;;;;21.15;11.45;;;20.30;99.90;;;;;;5093752;28;20043;-64
2022/08/26 01:30:40;;;;;;;20.02;11.80;;;20.40;99.90;;;;;;5095117;28;20036;-64
2022/08/26 01:33:10;;;;;;;20.30;10.75;;;20.30;99.90;;;;;;5092794;28;20044;-64
2022/08/26 01:35:37;;;;;;;15.70;10.57;;;20.30;99.90;;;;;;5093354;28;20040;-64
2022/08/26 01:38:03;;;;;;;17.15;9.68;;;20.30;99.90;;;;;;5093295;28;20039;-64
2022/08/26 01:40:35;;;;;;;15.52;9.35;;;20.30;99.90;;;;;;5093243;28;20044;-64
2022/08/26 01:43:03;;;;;;;14.77;8.10;;;20.30;99.90;;;;;;5090816;28;20431;-64
2022/08/26 01:45:32;;;;;;;17.15;8.50;;;20.30;99.90;;;;;;5093435;28;20508;-64
2022/08/26 01:48:00;;;;;;;12.00;7.47;;;20.30;99.90;;;;;;5093369;28;20458;-64
2022/08/26 01:50:33;;;;;;;17.33;7.13;;;20.20;99.90;;;;;;5092914;28;20054;-64
2022/08/26 01:53:04;;;;;;;15.88;7.00;;;20.20;99.90;;;;;;5094463;28;20035;-64
2022/08/26 01:55:31;;;;;;;11.85;6.75;;;20.20;99.90;;;;;;5090613;28;20039;-64
2022/08/26 01:57:59;;;;;;;10.40;6.18;;;20.20;99.90;;;;;;5094145;28;20040;-64
2022/08/26 02:00:26;;;;;;;11.88;6.13;;;20.20;99.90;;;;;;5093153;28;20385;-64
2022/08/26 02:03:15;;;;;;;11.77;5.68;;;20.10;99.90;;;;;;5094015;28;20048;-64
2022/08/26 02:05:41;;;;;;;13.30;5.40;;;20.10;99.90;;;;;;5092871;28;20050;-63
2022/08/26 02:08:07;;;;;;;14.02;5.80;;;20.00;99.90;;;;;;5092891;28;20047;-64
2022/08/26 02:10:33;;;;;;;10.70;4.93;;;20.00;99.90;;;;;;5094080;28;20080;-64
2022/08/26 02:12:59;;;;;;;14.90;5.40;;;19.90;99.90;;;;;;5103700;28;20098;-64
2022/08/26 02:15:25;;;;;;;13.68;5.60;;;19.80;99.90;;;;;;5096902;28;20126;-64
2022/08/26 02:17:52;;;;;;;9.77;4.10;;;19.80;99.90;;;;;;5097042;28;20497;-64
2022/08/26 02:20:19;;;;;;;10.75;5.10;;;19.80;99.90;;;;;;5096752;28;20039;-64
2022/08/26 02:22:45;;;;;;;8.63;4.05;;;19.70;99.90;;;;;;5079896;28;20044;-64
2022/08/26 02:25:25;;;;;;;9.95;4.32;;;19.70;99.90;;;;;;5115066;28;20376;-64
2022/08/26 02:27:51;;;;;;;;;;;19.70;99.90;;;;;;5080124;28;20044;-64
2022/08/26 02:30:25;;;;;;;16.55;5.55;;;19.60;99.90;;;;;;5114668;28;20459;-64
2022/08/26 02:32:51;;;;;;;11.98;3.60;;;19.60;99.90;;;;;;5096529;28;20047;-64
2022/08/26 02:35:19;;;;;;;8.07;3.53;;;19.50;99.90;;;;;;5114778;28;20031;-64
2022/08/26 02:37:46;;;;;;;8.70;3.40;;;19.50;99.90;;;;;;5096712;28;20071;-64
2022/08/26 02:40:14;;;;;;;8.07;3.08;;;19.50;99.90;;;;;;5096399;28;20040;-63
2022/08/26 02:42:40;;;;;;;12.80;3.78;;;19.40;99.90;;;;;;5095492;28;20119;-63
2022/08/26 02:45:07;;;;;;;12.27;3.03;;;19.40;99.90;;;;;;5112277;28;20040;-63
2022/08/26 02:47:33;;;;;;;6.70;3.22;;;19.40;99.90;;;;;;5079599;28;20075;-63
2022/08/26 02:49:59;;;;;;;8.00;2.90;;;19.40;99.90;;;;;;5096064;28;20118;-63
2022/08/26 02:52:25;;;;;;;6.25;2.40;;;19.30;99.90;;;;;;5114490;28;20078;-63
2022/08/26 02:54:51;;;;;;;9.98;3.30;;;19.30;99.90;;;;;;5096113;28;20051;-63
2022/08/26 02:57:17;;;;;;;11.73;3.05;;;19.20;99.90;;;;;;5114259;28;20081;-64
2022/08/26 02:59:44;;;;;;;7.32;2.08;;;19.30;99.90;;;;;;5114244;28;20077;-64
2022/08/26 03:02:10;;;;;;;10.75;2.95;;;19.20;99.90;;;;;;5096216;28;20093;-64
2022/08/26 03:04:37;;;;;;;8.93;2.40;;;19.30;99.90;;;;;;5096246;28;20043;-63
2022/08/26 03:07:11;;;;;;;6.47;2.03;;;19.20;99.90;;;;;;5151970;27;20555;-62
2022/08/26 03:09:36;;;;;;;7.32;2.00;;;19.30;99.90;;;;;;5112697;28;20134;-62
2022/08/26 03:12:03;;;;;;;9.43;2.03;;;19.30;99.90;;;;;;5131356;28;20122;-62
2022/08/26 03:14:28;;;;;;;8.48;2.13;;;19.30;99.90;;;;;;5110687;28;20132;-62
2022/08/26 03:16:54;;;;;;;7.07;2.10;;;19.30;99.90;;;;;;5131039;28;20036;-62
2022/08/26 03:19:24;;;;;;;9.68;2.20;;;19.30;99.90;;;;;;5112828;28;20074;-62
2022/08/26 03:21:52;;;;;;;6.30;1.98;;;19.30;99.90;;;;;;5112665;28;20039;-62
2022/08/26 03:24:18;;;;;;;8.07;1.83;;;19.30;99.90;;;;;;5112465;28;20073;-62
2022/08/26 03:26:45;;;;;;;8.88;2.00;;;19.30;99.90;;;;;;5112302;28;20100;-62
2022/08/26 03:31:55;;;;;;;4.18;1.67;;;19.30;99.90;;;;;;5112293;28;20043;-62
2022/08/26 03:34:22;;;;;;;5.97;2.00;;;19.30;99.90;;;;;;5112520;28;20035;-62
2022/08/26 03:36:49;;;;;;;9.98;2.28;;;19.30;99.90;;;;;;5112179;28;20039;-62
2022/08/26 03:39:14;;;;;;;8.38;1.67;;;19.30;99.90;;;;;;5112480;28;20349;-62
2022/08/26 03:41:40;;;;;;;9.38;1.77;;;19.30;99.90;;;;;;5112106;28;20050;-62
2022/08/26 03:44:07;;;;;;;9.77;2.05;;;19.30;99.90;;;;;;5109839;28;20043;-62
2022/08/26 03:46:34;;;;;;;12.43;2.33;;;19.40;99.90;;;;;;5112013;28;20043;-62
2022/08/26 03:49:01;;;;;;;5.28;1.90;;;19.30;99.90;;;;;;5130422;28;20047;-62
2022/08/26 03:51:27;;;;;;;8.95;2.10;;;19.30;99.90;;;;;;5130303;28;20035;-62
2022/08/26 03:53:53;;;;;;;7.90;1.90;;;19.30;99.90;;;;;;5130449;28;20039;-62
2022/08/26 03:56:19;;;;;;;11.13;2.38;;;19.30;99.90;;;;;;5130550;28;20047;-62
2022/08/26 03:58:45;;;;;;;11.57;1.85;;;19.30;99.90;;;;;;5112193;28;20035;-62
2022/08/26 04:01:13;;;;;;;10.65;2.90;;;19.30;99.90;;;;;;5111698;28;20479;-62
2022/08/26 04:03:57;;;;;;;11.02;1.95;;;19.30;99.90;;;;;;5110816;28;20133;-62
2022/08/26 04:06:28;;;;;;;7.85;1.83;;;19.30;99.90;;;;;;5107128;28;20532;-62
2022/08/26 04:08:56;;;;;;;11.13;2.40;;;19.30;99.90;;;;;;5108718;28;20040;-62
2022/08/26 04:11:27;;;;;;;8.73;2.13;;;19.30;99.90;;;;;;5108661;28;20089;-62
2022/08/26 04:13:53;;;;;;;12.93;2.55;;;19.30;99.90;;;;;;5087997;28;20044;-62
2022/08/26 04:16:19;;;;;;;6.57;2.05;;;19.30;99.90;;;;;;5106484;28;20511;-63
2022/08/26 04:18:44;;;;;;;8.23;2.05;;;19.40;99.90;;;;;;5094337;28;20191;-62
2022/08/26 04:21:11;;;;;;;12.88;2.25;;;19.30;99.90;;;;;;5093763;28;20052;-62
2022/08/26 04:23:37;;;;;;;8.50;2.50;;;19.30;99.90;;;;;;5094911;28;20036;-62
2022/08/26 04:26:04;;;;;;;9.82;2.45;;;19.40;99.90;;;;;;5094746;28;20040;-62
2022/08/26 04:28:30;;;;;;;13.68;2.55;;;19.40;99.90;;;;;;5094644;28;20115;-62
2022/08/26 04:30:56;;;;;;;10.73;2.70;;;19.40;99.90;;;;;;5076423;28;20135;-62
2022/08/26 04:33:22;;;;;;;16.17;3.47;;;19.40;99.90;;;;;;5093590;28;20119;-62
2022/08/26 04:35:48;;;;;;;11.77;2.97;;;19.40;99.90;;;;;;5093247;28;20047;-62
2022/08/26 04:38:15;;;;;;;9.98;3.17;;;19.40;99.90;;;;;;5076352;28;20047;-62
2022/08/26 04:40:45;;;;;;;13.50;2.70;;;19.40;99.90;;;;;;5094609;28;20481;-63
2022/08/26 04:43:11;;;;;;;11.23;2.40;;;19.50;99.90;;;;;;5090892;28;20405;-62
2022/08/26 04:45:39;;;;;;;6.85;2.60;;;19.50;99.90;;;;;;5092867;28;20036;-62
2022/08/26 04:48:05;;;;;;;8.80;2.60;;;19.50;99.90;;;;;;5093322;28;20039;-62
2022/08/26 04:50:31;;;;;;;11.88;2.58;;;19.50;99.90;;;;;;5093256;28;20040;-62
2022/08/26 04:52:57;;;;;;;14.23;2.67;;;19.50;99.90;;;;;;5076050;28;20431;-63
2022/08/26 04:55:24;;;;;;;9.38;3.20;;;19.50;99.90;;;;;;5075991;28;20564;-62
2022/08/26 04:57:50;;;;;;;10.80;2.85;;;19.50;99.90;;;;;;5093099;28;20396;-62
2022/08/26 05:00:16;;;;;;;9.93;2.55;;;19.50;99.90;;;;;;5092689;28;20578;-62
2022/08/26 05:02:42;;;;;;;9.70;2.58;;;19.60;99.90;;;;;;5093021;28;20127;-62
2022/08/26 05:05:08;;;;;;;15.52;3.22;;;19.60;99.90;;;;;;5092729;28;20531;-62
2022/08/26 05:07:35;;;;;;;11.07;2.72;;;19.60;99.90;;;;;;5092754;28;20044;-62
2022/08/26 05:10:02;;;;;;;10.25;2.65;;;19.60;99.90;;;;;;5094000;28;20039;-62
2022/08/26 05:12:29;;;;;;;8.57;2.05;;;19.60;99.90;;;;;;5092785;28;20037;-63
2022/08/26 05:14:54;;;;;;;12.38;2.58;;;19.60;99.90;;;;;;5091231;28;20072;-62
2022/08/26 05:17:20;;;;;;;10.60;2.42;;;19.60;99.90;;;;;;5093934;28;20072;-63
2022/08/26 05:19:47;;;;;;;10.05;2.58;;;19.60;99.90;;;;;;5092463;28;20032;-62
2022/08/26 05:22:13;;;;;;;9.40;2.58;;;19.60;99.90;;;;;;5092712;28;20503;-62
2022/08/26 05:24:40;;;;;;;14.10;2.70;;;19.60;99.90;;;;;;5075536;28;20044;-63
2022/08/26 05:27:06;;;;;;;7.50;2.40;;;19.60;99.90;;;;;;5092260;28;20044;-63
2022/08/26 05:29:32;;;;;;;10.73;2.80;;;19.60;99.90;;;;;;5092432;28;20114;-63
2022/08/26 05:31:59;;;;;;;7.55;1.70;;;19.70;99.90;;;;;;5092410;28;20036;-62
2022/08/26 05:34:25;;;;;;;12.32;2.58;;;19.60;99.90;;;;;;5092484;28;20044;-62
2022/08/26 05:36:51;;;;;;;9.75;2.20;;;19.70;99.90;;;;;;5076163;28;20047;-62
2022/08/26 05:39:17;;;;;;;7.80;2.22;;;19.60;99.90;;;;;;5094102;28;20376;-62
2022/08/26 05:41:43;;;;;;;10.43;2.05;;;19.60;99.90;;;;;;5093107;28;20420;-62
2022/08/26 05:44:12;;;;;;;10.98;2.25;;;19.70;99.90;;;;;;5090595;28;20177;-63
2022/08/26 05:46:39;;;;;;;9.68;2.35;;;19.60;99.90;;;;;;5092816;28;20051;-63
2022/08/26 05:49:06;;;;;;;8.98;2.15;;;19.60;99.90;;;;;;5094270;28;20046;-63
2022/08/26 05:51:32;;;;;;;8.70;2.45;;;19.70;99.90;;;;;;5094024;28;20044;-63
2022/08/26 05:54:01;;;;;;;6.30;1.95;;;19.70;99.90;;;;;;5094019;28;20032;-63
2022/08/26 05:56:27;;;;;;;10.38;2.25;;;19.70;99.90;;;;;;5076053;28;20044;-62
2022/08/26 05:58:55;;;;;;;7.78;2.20;;;19.70;99.90;;;;;;5092690;28;20460;-62
2022/08/26 06:01:25;;;;;;;11.95;2.38;;;19.70;99.90;;;;;;5093902;28;20065;-62
2022/08/26 06:03:55;;;;;;;9.82;2.60;;;19.70;99.90;;;;;;5092603;28;20047;-63
2022/08/26 06:06:24;;;;;;;11.95;3.15;;;19.70;99.90;;;;;;5092384;28;20135;-63
2022/08/26 06:08:50;;;;;;;7.07;1.90;;;19.70;99.90;;;;;;5092632;28;20119;-62
2022/08/26 06:11:19;;;;;;;8.80;2.40;;;19.70;99.90;;;;;;5092748;28;20376;-62
2022/08/26 06:13:46;;;;;;;10.07;2.80;;;19.70;99.90;;;;;;5091584;28;20036;-62
2022/08/26 06:16:16;;;;;;;7.35;1.65;;;19.70;99.90;;;;;;5093637;28;20492;-62
2022/08/26 06:18:45;;;;;;;8.32;2.30;;;19.80;99.90;;;;;;5092208;28;20127;-62
2022/08/26 06:21:38;;;;;;;6.00;1.98;;;19.80;99.90;;;;;;5093576;28;20550;-63
2022/08/26 06:27:04;;;;;;;9.60;2.03;;;19.80;99.90;;;;;;5093443;28;20040;-63
2022/08/26 06:29:32;;;;;;;8.88;1.92;;;19.80;99.90;;;;;;5093475;28;20043;-62
2022/08/26 06:31:59;;;;;;;6.07;1.60;;;19.80;99.90;;;;;;5092236;28;20036;-62
2022/08/26 06:34:27;;;;;;;11.45;1.85;;;19.80;99.90;;;;;;5093158;28;20036;-62
2022/08/26 06:36:54;;;;;;;9.57;2.15;;;19.80;99.90;;;;;;5093474;28;20377;-62
2022/08/26 06:39:20;;;;;;;13.77;2.42;;;19.80;99.90;;;;;;5074989;28;20043;-63
2022/08/26 06:41:47;;;;;;;12.05;2.28;;;19.70;99.90;;;;;;5093034;28;20040;-63
2022/08/26 06:44:14;;;;;;;8.30;1.95;;;19.70;99.90;;;;;;5089929;28;20399;-62
2022/08/26 06:46:42;;;;;;;11.90;2.30;;;19.70;99.90;;;;;;5092993;28;20036;-63
2022/08/26 06:49:08;;;;;;;11.43;2.65;;;19.70;99.90;;;;;;5093372;28;20373;-63
2022/08/26 06:51:36;;;;;;;10.20;1.92;;;19.80;99.90;;;;;;5093272;28;20043;-62
2022/08/26 06:54:03;;;;;;;11.75;2.10;;;19.80;99.90;;;;;;5091756;28;20041;-62
2022/08/26 06:56:35;;;;;;;7.22;1.77;;;19.80;99.90;;;;;;5093109;28;20118;-63
2022/08/26 06:59:02;;;;;;;13.77;3.05;;;19.90;99.90;;;;;;5091753;28;20123;-62
2022/08/26 07:01:35;;;;;;;5.93;1.83;;;19.90;99.90;;;;;;5091189;28;20577;-63
2022/08/26 07:04:04;;;;;;;8.07;1.70;;;19.90;99.90;;;;;;5092254;28;20032;-63
2022/08/26 07:06:36;;;;;;;9.90;1.90;;;20.00;99.90;;;;;;5090625;28;20401;-63
2022/08/26 07:09:04;;;;;;;8.13;1.70;;;20.10;99.90;;;;;;5074076;28;20051;-64
2022/08/26 07:11:35;;;;;;;8.48;2.30;;;20.10;99.90;;;;;;5089886;28;20040;-65
2022/08/26 07:14:03;;;;;;;11.20;2.25;;;20.20;99.90;;;;;;5069013;28;20746;-64
2022/08/26 07:16:29;;;;;;;9.25;1.65;;;20.30;99.90;;;;;;5071065;28;20048;-65
2022/08/26 07:18:56;;;;;;;8.27;1.60;;;20.40;99.90;;;;;;5071062;28;20389;-64
2022/08/26 07:21:23;;;;;;;10.05;2.20;;;20.40;99.90;;;;;;5070740;28;20496;-64
2022/08/26 07:23:49;;;;;;;9.88;2.35;;;20.40;99.90;;;;;;5070872;28;20079;-64
2022/08/26 07:26:19;;;;;;;9.30;1.50;;;20.40;99.90;;;;;;5071900;28;20473;-64
2022/08/26 07:28:46;;;;;;;;;;;20.40;99.90;;;;;;5072619;28;20119;-64
2022/08/26 07:31:14;;;;;;;11.13;2.13;;;20.50;99.90;;;;;;5070945;28;19920;-65
2022/08/26 07:33:41;;;;;;;6.95;1.33;;;20.50;99.90;;;;;;5071136;28;20443;-65
2022/08/26 07:36:09;;;;;;;6.72;1.23;;;20.50;99.90;;;;;;5070606;28;20045;-65
2022/08/26 07:38:36;;;;;;;8.25;1.60;;;20.50;99.90;;;;;;5071921;28;20037;-64
2022/08/26 07:41:02;;;;;;;15.90;2.40;;;20.50;99.90;;;;;;5070272;28;20055;-65
2022/08/26 07:43:29;;;;;;;9.75;1.90;;;20.50;99.90;;;;;;5067758;28;20080;-64
2022/08/26 07:45:55;;;;;;;11.98;1.92;;;20.50;99.90;;;;;;5068374;28;20117;-64
2022/08/26 07:48:21;;;;;;;9.18;1.77;;;20.50;99.90;;;;;;5071532;28;20086;-64
2022/08/26 07:50:47;;;;;;;8.68;1.60;;;20.50;99.90;;;;;;5071238;28;20044;-64
2022/08/26 07:53:13;;;;;;;9.77;2.10;;;20.60;99.90;;;;;;5072463;28;20040;-64
2022/08/26 07:55:39;;;;;;;11.13;1.90;;;20.70;99.90;;;;;;5073694;28;20102;-65
2022/08/26 07:58:05;;;;;;;8.45;1.58;;;20.70;99.90;;;;;;5074033;28;20044;-65
2022/08/26 08:00:32;;;;;;;7.30;1.33;;;20.70;99.90;;;;;;5057328;28;20045;-64
2022/08/26 08:03:03;;;;;;;8.98;2.40;;;20.80;99.90;;;;;;5073944;28;20043;-65
2022/08/26 08:05:31;;;;;;;9.50;1.65;;;20.80;99.90;;;;;;5073434;28;20137;-63
2022/08/26 08:07:58;;;;;;;11.20;2.22;;;20.80;99.90;;;;;;5073600;28;20033;-62
2022/08/26 08:10:27;;;;;;;8.48;1.90;;;20.80;99.90;;;;;;5074782;28;20040;-62
2022/08/26 08:12:54;;;;;;;8.68;1.80;;;20.80;99.90;;;;;;5072098;28;20464;-61
2022/08/26 08:15:24;;;;;;;6.40;1.35;;;20.80;99.90;;;;;;5074385;28;20040;-61
2022/08/26 08:17:50;;;;;;;10.20;1.80;;;20.90;99.90;;;;;;5073428;28;20083;-62
2022/08/26 08:20:16;;;;;;;14.45;2.55;;;20.80;99.90;;;;;;5075083;28;20129;-61
2022/08/26 08:22:42;;;;;;;10.95;1.70;;;20.80;99.90;;;;;;5073429;28;20432;-61
2022/08/26 08:25:10;;;;;;;5.38;1.48;;;20.70;99.90;;;;;;5073482;28;20082;-62
2022/08/26 08:27:37;;;;;;;9.20;1.40;;;20.70;99.90;;;;;;5073225;28;20047;-61
2022/08/26 08:30:04;;;;;;;12.35;2.45;;;20.70;99.90;;;;;;5056769;28;20083;-63
2022/08/26 08:32:30;;;;;;;6.00;1.55;;;20.70;99.90;;;;;;5074461;28;20072;-60
2022/08/26 08:34:58;;;;;;;6.13;1.25;;;20.70;99.90;;;;;;5073114;28;20090;-63
2022/08/26 08:37:24;;;;;;;7.00;1.58;;;20.70;99.90;;;;;;5073029;28;20040;-62
2022/08/26 08:39:50;;;;;;;4.93;1.20;;;20.60;99.90;;;;;;5073097;28;20123;-62
2022/08/26 08:42:22;;;;;;;9.65;1.98;;;20.60;99.90;;;;;;5072957;28;20127;-63
2022/08/26 08:44:50;;;;;;;6.25;1.25;;;20.60;99.90;;;;;;5070443;28;20040;-63
2022/08/26 08:47:35;;;;;;;8.25;1.42;;;20.70;99.90;;;;;;5056165;28;20045;-62
2022/08/26 08:50:27;;;;;;;5.40;1.27;;;20.70;99.90;;;;;;5072822;28;20047;-63
2022/08/26 08:53:37;;;;;;;7.07;1.33;;;20.70;99.90;;;;;;5065751;28;20052;-63
2022/08/26 08:56:32;;;;;;;8.77;1.30;;;20.70;99.90;;;;;;5069535;28;20049;-62
2022/08/26 08:59:19;;;;;;;6.30;1.50;;;20.80;99.90;;;;;;5056266;28;20041;-63
2022/08/26 09:01:57;;;;;;;8.82;1.48;;;20.70;99.90;;;;;;5073851;28;20653;-62
2022/08/26 09:04:38;;;;;;;8.93;1.55;;;20.60;99.90;;;;;;5056092;28;20097;-62
2022/08/26 09:07:09;;;;;;;7.75;1.05;;;20.50;99.90;;;;;;5072310;28;20084;-62
2022/08/26 09:10:00;;;;;;;9.02;1.20;;;20.50;99.90;;;;;;5072678;28;20036;-62
2022/08/26 09:12:32;;;;;;;5.20;1.20;;;20.50;99.90;;;;;;5072483;28;20041;-63
2022/08/26 09:15:11;;;;;;;9.35;1.45;;;20.40;99.90;;;;;;5070127;28;20464;-63
2022/08/26 09:18:04;;;;;;;7.97;1.75;;;20.40;99.90;;;;;;5073584;28;20072;-63
2022/08/26 09:20:54;;;;;;;7.88;1.70;;;20.40;99.90;;;;;;5024986;28;20492;-64
2022/08/26 09:23:20;;;;;;;5.88;1.13;;;20.40;99.90;;;;;;5055440;28;20127;-63
2022/08/26 09:25:55;;;;;;;5.03;1.00;;;20.40;99.90;;;;;;5073492;28;20124;-63
2022/08/26 09:28:23;;;;;;;4.82;0.90;;;20.30;99.90;;;;;;5072108;28;20519;-62
2022/08/26 09:31:11;;;;;;;8.38;1.80;;;20.20;99.90;;;;;;5072302;28;20424;-63
2022/08/26 09:33:38;;;;;;;4.72;0.85;;;20.20;99.90;;;;;;5073163;28;20037;-63
2022/08/26 09:36:17;;;;;;;4.53;0.90;;;20.20;99.90;;;;;;5072190;28;20052;-62
2022/08/26 09:38:44;;;;;;;1.77;0.60;;;20.30;99.90;;;;;;5073135;28;20532;-64
2022/08/26 09:41:21;;;;;;;4.88;0.90;;;20.40;99.90;;;;;;5071834;28;20048;-67
2022/08/26 09:44:09;;;;;;;9.80;1.35;;;20.50;99.90;;;;;;5069583;28;20237;-62
2022/08/26 09:46:39;;;;;;;2.83;0.90;;;20.50;99.90;;;;;;5072901;28;20473;-61
2022/08/26 09:49:30;;;;;;;5.72;1.02;;;20.60;99.90;;;;;;5072929;28;20599;-61
2022/08/26 09:52:20;;;;;;;4.70;0.93;;;20.70;99.90;;;;;;5064687;28;20058;-61
2022/08/26 09:55:15;;;;;;;8.30;1.38;;;20.70;99.90;;;;;;5071768;28;20522;-61
2022/08/26 09:57:46;;;;;;;12.55;2.58;;;20.80;99.90;;;;;;5071518;28;20040;-62
2022/08/26 10:01:00;;;;;;;17.00;1.98;;;20.90;99.90;;;;;;5071719;28;20037;-62
2022/08/26 10:03:34;;;;;;;9.20;1.70;;;20.90;99.90;;;;;;5030328;28;20128;-61
2022/08/26 10:06:23;;;;;;;4.88;0.93;;;20.80;99.90;;;;;;5079018;28;20127;-61
2022/08/26 10:08:53;;;;;;;4.38;1.23;;;20.80;99.90;;;;;;5071394;28;20127;-61
2022/08/26 10:11:23;;;;;;;7.20;1.15;;;20.90;99.90;;;;;;5071196;28;20033;-62
2022/08/26 10:13:59;;;;;;;4.80;0.93;;;21.00;99.90;;;;;;5070003;28;20048;-62
2022/08/26 10:16:41;;;;;;;6.28;1.27;;;21.00;99.90;;;;;;5072126;28;20044;-62
2022/08/26 10:19:12;;;;;;;7.53;0.98;;;20.90;99.90;;;;;;5072431;28;20136;-61
2022/08/26 10:21:48;;;;;;;3.80;1.10;;;20.80;99.90;;;;;;5072773;28;20040;-60
2022/08/26 10:24:22;;;;;;;8.00;1.20;;;20.70;99.90;;;;;;5072193;28;20045;-61
2022/08/26 10:26:56;;;;;;;5.43;1.20;;;20.70;99.90;;;;;;5072398;28;20123;-61
2022/08/26 10:29:32;;;;;;;5.25;1.23;;;20.80;99.90;;;;;;5071006;28;20033;-60
2022/08/26 10:32:11;;;;;;;5.38;1.13;;;20.80;99.90;;;;;;5071129;28;20048;-61
2022/08/26 10:34:38;;;;;;;7.85;1.73;;;20.90;99.90;;;;;;5078496;28;20048;-61
2022/08/26 10:37:12;;;;;;;5.72;0.95;;;21.00;99.90;;;;;;5074250;28;20098;-62
2022/08/26 10:40:01;;;;;;;6.32;1.17;;;21.00;99.90;;;;;;5074211;28;20122;-61
2022/08/26 10:42:53;;;;;;;8.20;1.63;;;21.00;99.90;;;;;;5091031;28;20071;-61
2022/08/26 10:45:24;;;;;;;5.38;1.17;;;21.00;99.90;;;;;;5073282;28;20044;-61
2022/08/26 10:47:55;;;;;;;5.38;1.00;;;20.80;99.90;;;;;;5091226;28;20036;-61
2022/08/26 10:50:25;;;;;;;6.20;1.65;;;20.60;99.90;;;;;;5091197;28;20046;-61
2022/08/26 10:52:54;;;;;;;5.45;0.82;;;20.50;99.90;;;;;;5092023;28;20036;-60
2022/08/26 10:55:38;;;;;;;6.88;1.00;;;20.50;99.90;;;;;;5092370;28;20040;-61
2022/08/26 10:58:26;;;;;;;4.75;1.27;;;20.50;99.90;;;;;;5092152;28;20169;-60
2022/08/26 11:04:17;;;;;;;2.80;0.93;;;20.80;99.90;;;;;;5052698;28;20059;-61
2022/08/26 11:06:44;;;;;;;3.53;0.88;;;21.00;99.90;;;;;;5090450;28;20064;-61
2022/08/26 11:09:31;;;;;;;5.82;1.02;;;21.20;99.90;;;;;;5090653;28;20048;-61
2022/08/26 11:11:57;;;;;;;5.65;1.17;;;21.30;99.90;;;;;;5073645;28;20036;-61
2022/08/26 11:14:23;;;;;;;5.70;1.08;;;21.50;99.90;;;;;;5088164;28;20043;-61
2022/08/26 11:16:51;;;;;;;6.13;1.10;;;21.60;99.90;;;;;;5090910;28;20130;-61
2022/08/26 11:19:29;;;;;;;7.65;1.20;;;21.70;99.90;;;;;;5090578;28;20043;-62
2022/08/26 11:22:09;;;;;;;8.20;0.90;;;21.80;99.90;;;;;;5091764;28;20036;-62
2022/08/26 11:24:53;;;;;;;4.10;1.00;;;21.70;99.90;;;;;;5090568;28;20052;-61
2022/08/26 11:27:23;;;;;;;8.02;1.48;;;21.60;99.90;;;;;;5091598;28;20080;-62
2022/08/26 11:30:18;;;;;;;4.70;1.20;;;21.40;99.90;;;;;;5094972;28;20067;-61
2022/08/26 11:32:53;;;;;;;5.80;1.02;;;21.20;99.90;;;;;;5094739;28;20040;-61
2022/08/26 11:35:19;;;;;;;9.88;1.45;;;21.10;99.90;;;;;;5095765;28;20089;-61
2022/08/26 11:37:51;;;;;;;5.70;1.13;;;21.00;99.90;;;;;;5095685;28;20044;-61
2022/08/26 11:40:19;;;;;;;6.90;1.10;;;21.00;99.90;;;;;;5077479;28;20040;-61
2022/08/26 11:42:48;;;;;;;5.20;1.48;;;20.90;99.90;;;;;;5095636;28;20488;-61
2022/08/26 11:45:36;;;;;;;7.88;1.60;;;20.90;99.90;;;;;;5092080;28;20093;-61
2022/08/26 11:48:18;;;;;;;7.75;1.95;;;20.90;99.90;;;;;;5077495;28;20070;-62
2022/08/26 11:50:53;;;;;;;9.77;1.20;;;20.90;99.90;;;;;;5094090;28;20044;-61
2022/08/26 11:53:20;;;;;;;7.38;1.55;;;20.80;99.90;;;;;;5094317;28;20040;-61
2022/08/26 11:55:46;;;;;;;6.22;1.05;;;20.80;99.90;;;;;;5077189;28;20067;-61
2022/08/26 11:58:13;;;;;;;5.45;1.33;;;20.70;99.90;;;;;;5094331;28;20051;-61
2022/08/26 12:00:45;;;;;;;5.03;1.35;;;20.60;99.90;;;;;;5094000;28;20051;-61
2022/08/26 12:03:19;;;;;;;2.97;0.90;;;20.50;99.90;;;;;;5077082;28;20139;-60
2022/08/26 12:05:48;;;;;;;5.03;1.02;;;20.40;99.90;;;;;;5066139;28;20109;-61
2022/08/26 12:08:20;;;;;;;4.30;1.00;;;20.40;99.90;;;;;;5094683;28;20456;-60
2022/08/26 12:10:47;;;;;;;6.63;1.20;;;20.30;99.90;;;;;;5077742;28;20036;-60
2022/08/26 12:13:24;;;;;;;7.18;1.35;;;20.30;99.90;;;;;;5092167;28;20047;-60
2022/08/26 12:15:59;;;;;;;5.13;1.38;;;20.20;99.90;;;;;;5094523;28;20051;-60
2022/08/26 12:18:31;;;;;;;8.32;2.10;;;20.10;99.90;;;;;;5077371;28;20539;-61
2022/08/26 12:20:59;;;;;;;8.80;1.52;;;20.10;99.90;;;;;;5095756;28;20040;-60
2022/08/26 12:23:34;;;;;;;6.68;1.50;;;20.00;99.90;;;;;;5094240;28;20039;-60
2022/08/26 12:26:21;;;;;;;5.82;1.40;;;20.00;99.90;;;;;;5093955;28;20044;-60
2022/08/26 12:29:01;;;;;;;5.72;1.23;;;19.90;99.90;;;;;;5077177;28;20043;-61
2022/08/26 12:31:33;;;;;;;7.03;1.52;;;19.90;99.90;;;;;;5095241;28;20040;-61
2022/08/26 12:34:02;;;;;;;7.47;1.70;;;19.80;99.90;;;;;;5093905;28;20040;-61
2022/08/26 12:36:38;;;;;;;6.70;1.30;;;19.70;99.90;;;;;;5093904;28;20080;-62
2022/08/26 12:39:11;;;;;;;4.90;1.05;;;19.70;99.90;;;;;;5094080;28;20270;-61
2022/08/26 12:41:45;;;;;;;4.65;1.15;;;19.60;99.90;;;;;;5093223;28;20500;-61
2022/08/26 12:44:50;;;;;;;5.93;1.75;;;19.60;99.90;;;;;;5091989;28;20561;-62
2022/08/26 12:47:27;;;;;;;6.25;1.52;;;19.60;99.90;;;;;;5079860;28;20048;-61
2022/08/26 12:50:05;;;;;;;7.30;1.60;;;19.60;99.90;;;;;;5094244;28;20081;-61
2022/08/26 12:52:36;;;;;;;6.90;1.30;;;19.60;99.90;;;;;;5093072;28;20173;-61
2022/08/26 12:55:16;;;;;;;5.00;1.30;;;19.50;99.90;;;;;;5076155;28;20051;-61
2022/08/26 12:57:42;;;;;;;;;;;19.50;99.90;;;;;;5076808;28;20040;-61
2022/08/26 13:00:40;;;;;;;3.45;1.33;;;19.40;99.90;;;;;;5092861;28;20395;-61
2022/08/26 13:03:30;;;;;;;6.50;1.40;;;19.40;99.90;;;;;;5093044;28;20046;-61
2022/08/26 13:06:26;;;;;;;5.97;1.30;;;19.30;99.90;;;;;;5092576;28;20135;-61
2022/08/26 13:09:23;;;;;;;7.00;2.13;;;19.40;99.90;;;;;;5093005;28;20035;-61
2022/08/26 13:11:51;;;;;;;5.40;1.85;;;19.40;99.90;;;;;;5093818;28;20040;-62